To NAV CANADA Home Page Login to a new session Search on AWWS site Disclaimer Vers la page française équivalente Tips FAQ What's new on the site To the Forecasts and Observations / NOTAM section To "File a Flight Plan" website Publications and other links Update of the User's profile FIC Telephone Numbers My Weather Data Folder Route Weather Data Regional Weather Data Local Weather Data To the Forecasts and Observations / NOTAM section
Request Generated 04/24/2019 at 16:11:55 UTC . Weather information available at that time is displayed.

METAR/TAF

OLD CROW/YT    

METAR CYOC 241600Z 04018G29KT 30SM FEW045 FEW130 BKN220 M09/M18 A3020 RMK SC1AC1CI4 SLP253=
METAR CYOC 241500Z 03017G29KT 35SM SCT045 BKN130 BKN220 M10/M18 A3017 RMK SC3AC3CI1 SLP243=
METAR CYOC 241400Z 03014G29KT 30SM DRSN FEW018 SCT045 BKN130 M10/M17 A3016 RMK SF1SC4AC3 SF TR SLP239=

TAF CYOC 241439Z 2415/2501 04015G30KT P6SM SCT020 SCT040 BKN120 TEMPO
2415/2419 5SM -SHSN BKN015 OVC030
BECMG 2419/2421 04010G20KT SCT012 SCT030
RMK NXT FCST BY 241800Z=
Your time UTC time
Weather data provided by Environment Canada and NAV CANADA